Time;durP1;ratioP1;P1;durP2;ratioP2;P2;SDS_P1;SDS_P2;PMS_P1;PMS_P2;Temp;Humidity;BMP_temperature;BMP_pressure;BME280_temperature;BME280_humidity;BME280_pressure;Samples;Min_cycle;Max_cycle;Signal;HPM_P1;HPM_P2
2023/08/04 00:01:12;;;;;;;22.40;6.07;;;;;;;20.12;100.00;99695.22;5077228;28;20360;-73
2023/08/04 00:03:37;;;;;;;24.08;6.35;;;;;;;20.17;100.00;99700.66;5093940;28;20039;-73
2023/08/04 00:06:10;;;;;;;28.70;6.45;;;;;;;20.24;100.00;99711.22;5077580;28;20028;-73
2023/08/04 00:08:35;;;;;;;22.38;6.68;;;;;;;20.25;100.00;99707.38;5094128;28;20081;-73
2023/08/04 00:11:01;;;;;;;23.85;5.80;;;;;;;20.30;100.00;99703.81;5077547;28;20031;-73
2023/08/04 00:13:27;;;;;;;25.48;6.05;;;;;;;20.23;100.00;99695.13;5095091;28;20437;-73
2023/08/04 00:15:52;;;;;;;24.92;6.18;;;;;;;20.31;100.00;99708.16;5094709;28;20100;-73
2023/08/04 00:18:18;;;;;;;24.15;5.90;;;;;;;20.33;100.00;99706.75;5079326;28;20053;-73
2023/08/04 00:20:43;;;;;;;27.10;6.10;;;;;;;20.37;100.00;99707.81;5095294;28;20039;-73
2023/08/04 00:23:08;;;;;;;24.75;6.35;;;;;;;20.38;100.00;99700.41;5093846;28;20487;-73
2023/08/04 00:25:34;;;;;;;27.88;6.28;;;;;;;20.46;100.00;99707.97;5094986;28;20411;-73
2023/08/04 00:27:59;;;;;;;21.88;6.43;;;;;;;20.50;100.00;99710.94;5076870;28;20513;-73
2023/08/04 00:30:25;;;;;;;24.33;6.13;;;;;;;20.50;100.00;99709.03;5076341;28;20492;-73
2023/08/04 00:32:51;;;;;;;33.15;6.82;;;;;;;20.52;100.00;99708.75;5076665;28;20544;-73
2023/08/04 00:35:16;;;;;;;27.02;5.78;;;;;;;20.51;100.00;99710.69;5094466;28;20432;-74
2023/08/04 00:37:42;;;;;;;24.60;6.05;;;;;;;20.39;100.00;99694.66;5077075;28;20039;-73
2023/08/04 00:40:08;;;;;;;26.98;6.50;;;;;;;20.50;100.00;99708.22;5094158;28;20020;-73
2023/08/04 00:42:33;;;;;;;25.27;6.00;;;;;;;20.53;100.00;99708.47;5095485;28;20131;-74
2023/08/04 00:44:59;;;;;;;29.15;6.35;;;;;;;20.55;100.00;99711.72;5093581;28;20028;-73
2023/08/04 00:47:25;;;;;;;26.08;6.20;;;;;;;20.57;100.00;99714.97;5094847;28;20028;-73
2023/08/04 00:49:53;;;;;;;22.10;5.90;;;;;;;20.55;100.00;99713.63;5092922;28;20139;-73
2023/08/04 00:52:19;;;;;;;23.52;6.13;;;;;;;20.44;100.00;99701.19;5094520;28;20078;-74
2023/08/04 00:54:46;;;;;;;29.55;6.47;;;;;;;20.53;100.00;99715.84;5093055;28;20028;-73
2023/08/04 00:57:11;;;;;;;22.08;5.53;;;;;;;20.39;100.00;99702.03;5076188;28;20058;-73
2023/08/04 00:59:37;;;;;;;26.00;6.55;;;;;;;20.42;100.00;99710.47;5094719;28;20028;-73
2023/08/04 01:02:02;;;;;;;28.67;6.60;;;;;;;20.44;100.00;99718.38;5093142;28;20024;-74
2023/08/04 01:04:29;;;;;;;25.70;6.15;;;;;;;20.40;100.00;99720.88;5075379;28;20036;-73
2023/08/04 01:07:08;;;;;;;27.27;5.82;;;;;;;20.33;100.00;99711.38;5092969;28;20028;-73
2023/08/04 01:09:36;;;;;;;23.23;6.03;;;;;;;20.41;100.00;99724.44;5093948;28;20024;-73
2023/08/04 01:12:04;;;;;;;25.52;6.40;;;;;;;20.41;100.00;99725.25;5092665;28;20240;-73
2023/08/04 01:14:31;;;;;;;28.00;6.38;;;;;;;20.38;100.00;99720.34;5093737;28;20024;-73
2023/08/04 01:17:00;;;;;;;26.17;6.68;;;;;;;20.35;100.00;99729.13;5094045;28;20475;-74
2023/08/04 01:19:26;;;;;;;25.13;5.70;;;;;;;20.34;100.00;99722.03;5093009;28;20032;-73
2023/08/04 01:21:52;;;;;;;24.33;6.10;;;;;;;20.36;100.00;99724.47;5075837;28;20035;-74
2023/08/04 01:24:17;;;;;;;29.10;6.30;;;;;;;20.35;100.00;99731.84;5075861;28;20058;-74
2023/08/04 01:26:45;;;;;;;31.85;6.28;;;;;;;20.33;100.00;99725.03;5092520;28;20398;-73
2023/08/04 01:29:13;;;;;;;26.70;6.15;;;;;;;20.25;100.00;99718.31;5075357;28;20028;-73
2023/08/04 01:31:39;;;;;;;28.50;6.32;;;;;;;20.26;100.00;99721.84;5094168;28;20027;-73
2023/08/04 01:34:05;;;;;;;31.33;5.68;;;;;;;20.29;100.00;99735.75;5095531;28;20125;-73
2023/08/04 01:36:30;;;;;;;29.90;6.32;;;;;;;20.26;100.00;99736.31;5093505;28;20028;-74
2023/08/04 01:38:56;;;;;;;21.85;5.78;;;;;;;20.25;100.00;99744.81;5094099;28;20028;-73
2023/08/04 01:41:22;;;;;;;23.52;5.80;;;;;;;20.25;100.00;99751.09;5058983;28;20032;-73
2023/08/04 01:43:47;;;;;;;31.17;5.72;;;;;;;20.29;100.00;99751.31;5075537;28;20059;-74
2023/08/04 01:46:12;;;;;;;22.25;5.65;;;;;;;20.29;100.00;99748.59;5092172;28;20032;-73
2023/08/04 01:48:38;;;;;;;29.30;6.93;;;;;;;20.20;100.00;99732.03;5091569;28;20032;-74
2023/08/04 01:51:03;;;;;;;27.90;6.13;;;;;;;20.21;100.00;99738.31;5092083;28;20044;-74
2023/08/04 01:53:28;;;;;;;29.80;7.45;;;;;;;20.26;100.00;99746.44;5058169;28;20032;-74
2023/08/04 01:55:54;;;;;;;29.73;6.43;;;;;;;20.17;100.00;99741.63;5092059;28;20083;-73
2023/08/04 01:58:20;;;;;;;29.63;6.45;;;;;;;20.20;100.00;99751.16;5093216;28;20035;-73
2023/08/04 02:00:46;;;;;;;29.65;6.60;;;;;;;20.18;100.00;99756.91;5058692;28;20118;-73
2023/08/04 02:03:11;;;;;;;31.83;7.07;;;;;;;20.19;100.00;99752.25;5092009;28;20077;-73
2023/08/04 02:05:36;;;;;;;26.55;6.20;;;;;;;20.18;100.00;99750.63;5092466;28;20043;-74
2023/08/04 02:08:02;;;;;;;38.25;6.65;;;;;;;20.07;100.00;99736.25;5092119;28;20406;-73
2023/08/04 02:10:28;;;;;;;30.75;6.63;;;;;;;20.15;100.00;99752.00;5074852;28;20401;-73
2023/08/04 02:12:53;;;;;;;31.55;6.47;;;;;;;20.17;100.00;99755.28;5074829;28;20035;-73
2023/08/04 02:15:18;;;;;;;25.10;6.25;;;;;;;20.11;100.00;99740.03;5074663;28;20028;-73
2023/08/04 02:17:44;;;;;;;32.92;6.50;;;;;;;20.16;100.00;99753.66;5057450;28;20034;-73
2023/08/04 02:20:10;;;;;;;31.45;7.45;;;;;;;20.14;100.00;99755.03;5092012;28;20027;-73
2023/08/04 02:22:35;;;;;;;31.00;7.00;;;;;;;20.07;100.00;99749.09;5076580;28;20050;-74
2023/08/04 02:25:00;;;;;;;34.33;7.03;;;;;;;20.05;100.00;99752.09;5093878;28;20042;-73
2023/08/04 02:27:26;;;;;;;38.75;7.47;;;;;;;20.04;100.00;99752.41;5091628;28;20512;-73
2023/08/04 02:29:51;;;;;;;26.00;6.90;;;;;;;20.01;100.00;99761.97;5093911;28;20049;-73
2023/08/04 02:32:17;;;;;;;31.90;7.50;;;;;;;20.03;100.00;99765.22;5075082;28;20482;-73
2023/08/04 02:34:42;;;;;;;32.95;7.13;;;;;;;19.99;100.00;99769.63;5074934;28;20076;-73
2023/08/04 02:37:07;;;;;;;33.65;7.38;;;;;;;19.98;100.00;99773.47;5091163;28;20498;-73
2023/08/04 02:39:34;;;;;;;31.05;7.10;;;;;;;20.01;100.00;99764.72;5092508;28;20161;-72
2023/08/04 02:42:00;;;;;;;30.17;6.95;;;;;;;19.98;100.00;99767.22;5091131;28;20024;-73
2023/08/04 02:44:25;;;;;;;32.53;6.95;;;;;;;20.00;100.00;99765.81;5074103;28;20101;-73
2023/08/04 02:46:51;;;;;;;33.03;7.68;;;;;;;20.00;100.00;99771.28;5092520;28;20302;-74
2023/08/04 02:49:16;;;;;;;36.85;8.10;;;;;;;20.03;100.00;99780.81;5073901;28;20497;-73
2023/08/04 02:51:41;;;;;;;31.20;7.43;;;;;;;20.02;100.00;99774.53;5091109;28;20063;-73
2023/08/04 02:54:09;;;;;;;29.80;7.80;;;;;;;20.01;100.00;99778.38;5074015;28;20487;-73
2023/08/04 02:56:35;;;;;;;32.95;7.03;;;;;;;20.02;100.00;99782.72;5091619;28;20035;-73
2023/08/04 02:59:00;;;;;;;38.63;7.97;;;;;;;19.93;100.00;99760.69;5092305;28;20024;-73
2023/08/04 03:01:26;;;;;;;27.50;7.13;;;;;;;20.05;100.00;99782.16;5090731;28;20028;-73
2023/08/04 03:03:51;;;;;;;36.05;7.72;;;;;;;20.05;100.00;99779.41;5073789;28;20036;-73
2023/08/04 03:06:17;;;;;;;30.63;7.43;;;;;;;19.91;100.00;99756.63;5073693;28;20031;-74
2023/08/04 03:08:42;;;;;;;37.83;8.18;;;;;;;20.04;100.00;99777.78;5073988;28;20435;-73
2023/08/04 03:11:10;;;;;;;36.35;8.43;;;;;;;20.03;100.00;99778.06;5090645;28;20566;-73
2023/08/04 03:13:36;;;;;;;36.13;7.53;;;;;;;20.03;100.00;99781.59;5090505;28;20020;-73
2023/08/04 03:16:02;;;;;;;41.90;8.52;;;;;;;20.00;100.00;99787.66;5091653;28;20085;-73
2023/08/04 03:18:28;;;;;;;39.22;8.93;;;;;;;19.85;100.00;99764.03;5090641;28;20032;-74
2023/08/04 03:20:54;;;;;;;32.58;7.57;;;;;;;19.90;100.00;99771.34;5090468;28;20028;-73
2023/08/04 03:23:21;;;;;;;35.72;8.25;;;;;;;20.00;100.00;99792.28;5073887;28;20036;-73
2023/08/04 03:25:47;;;;;;;36.00;7.63;;;;;;;19.94;100.00;99784.16;5091764;28;20072;-73
2023/08/04 03:28:12;;;;;;;27.98;7.68;;;;;;;19.95;100.00;99795.91;5091350;28;20035;-74
2023/08/04 03:30:38;;;;;;;34.20;8.18;;;;;;;19.97;100.00;99790.97;5092295;28;20036;-73
2023/08/04 03:33:03;;;;;;;30.60;8.15;;;;;;;19.95;100.00;99790.44;5091136;28;20028;-73
2023/08/04 03:35:30;;;;;;;31.77;7.85;;;;;;;19.97;100.00;99798.31;5090857;28;20033;-73
2023/08/04 03:37:55;;;;;;;30.80;7.45;;;;;;;19.97;100.00;99803.78;5091002;28;20031;-74
2023/08/04 03:40:21;;;;;;;34.90;8.48;;;;;;;19.93;100.00;99793.47;5091599;28;20028;-73
2023/08/04 03:42:47;;;;;;;31.20;8.45;;;;;;;19.92;100.00;99791.81;5073428;28;20164;-73
2023/08/04 03:45:12;;;;;;;32.88;8.05;;;;;;;19.91;100.00;99786.66;5090030;28;20038;-73
2023/08/04 03:47:38;;;;;;;30.75;7.72;;;;;;;19.95;100.00;99802.16;5073133;28;20028;-73
2023/08/04 03:50:05;;;;;;;29.98;8.18;;;;;;;19.98;100.00;99803.50;5090115;28;20542;-73
2023/08/04 03:52:32;;;;;;;30.42;7.72;;;;;;;19.99;100.00;99798.88;5090437;28;20056;-74
2023/08/04 03:54:58;;;;;;;34.25;8.02;;;;;;;20.00;100.00;99803.22;5090237;28;20564;-73
2023/08/04 03:57:24;;;;;;;29.02;7.55;;;;;;;20.00;100.00;99804.06;5090018;28;20036;-73
2023/08/04 03:59:51;;;;;;;30.65;7.50;;;;;;;20.03;100.00;99802.66;5090611;28;20024;-73
2023/08/04 04:02:16;;;;;;;36.40;8.05;;;;;;;20.03;100.00;99806.19;5090574;28;20550;-73
2023/08/04 04:04:41;;;;;;;31.00;7.07;;;;;;;19.90;100.00;99788.56;5090360;28;20135;-73
2023/08/04 04:07:07;;;;;;;25.38;7.10;;;;;;;20.07;100.00;99801.81;5072876;28;20032;-73
2023/08/04 04:09:32;;;;;;;34.80;7.47;;;;;;;20.11;100.00;99802.03;5072583;28;20449;-73
2023/08/04 04:11:58;;;;;;;35.92;7.78;;;;;;;20.14;100.00;99807.75;5055922;28;20467;-74
2023/08/04 04:14:23;;;;;;;35.05;8.60;;;;;;;20.17;100.00;99801.72;5091310;28;20052;-73
2023/08/04 04:16:48;;;;;;;33.90;7.32;;;;;;;20.15;100.00;99806.63;5091037;28;20101;-74
2023/08/04 04:19:14;;;;;;;34.20;7.57;;;;;;;20.11;100.00;99802.03;5072881;28;20111;-74
2023/08/04 04:21:39;;;;;;;23.20;6.55;;;;;;;20.17;100.00;99820.81;5089648;28;20028;-73
2023/08/04 04:24:05;;;;;;;30.02;6.78;;;;;;;20.23;100.00;99818.88;5072831;28;20039;-74
2023/08/04 04:26:30;;;;;;;28.00;7.32;;;;;;;20.12;100.00;99801.75;5072976;28;20032;-73
2023/08/04 04:28:56;;;;;;;36.85;8.13;;;;;;;20.22;100.00;99827.34;5072908;28;20032;-74
2023/08/04 04:31:21;;;;;;;28.00;7.07;;;;;;;20.18;100.00;99817.00;5091597;28;20036;-74
2023/08/04 04:33:46;;;;;;;32.33;7.43;;;;;;;20.30;100.00;99824.81;5072165;28;20092;-73
2023/08/04 04:36:12;;;;;;;30.33;6.60;;;;;;;20.31;100.00;99820.97;5071944;28;20032;-74
2023/08/04 04:38:37;;;;;;;29.23;7.30;;;;;;;20.43;100.00;99823.34;5089087;28;20044;-73
2023/08/04 04:41:03;;;;;;;34.88;7.30;;;;;;;20.45;100.00;99832.03;5074656;28;20071;-74
2023/08/04 04:43:29;;;;;;;33.35;7.78;;;;;;;20.46;100.00;99833.66;5092961;28;20035;-74
2023/08/04 04:45:55;;;;;;;31.17;7.18;;;;;;;20.41;100.00;99820.88;5092766;28;20047;-73
2023/08/04 04:48:22;;;;;;;32.10;7.75;;;;;;;20.47;100.00;99838.03;5093924;28;20076;-74
2023/08/04 04:50:49;;;;;;;28.70;6.88;;;;;;;20.49;100.00;99838.53;5094044;28;20047;-74
2023/08/04 04:53:15;;;;;;;32.75;7.97;;;;;;;20.40;100.00;99823.91;5092749;28;20169;-74
2023/08/04 04:55:41;;;;;;;28.42;7.30;;;;;;;20.38;100.00;99826.09;5092848;28;20393;-74
2023/08/04 04:58:06;;;;;;;31.10;6.82;;;;;;;20.41;100.00;99841.91;5077219;28;20051;-73
2023/08/04 05:00:33;;;;;;;27.23;7.38;;;;;;;20.50;100.00;99842.13;5060182;28;20032;-74
2023/08/04 05:02:59;;;;;;;27.85;6.93;;;;;;;20.56;100.00;99850.00;5092739;28;20455;-74
2023/08/04 05:05:25;;;;;;;24.08;6.57;;;;;;;20.49;100.00;99843.19;5094116;28;20063;-74
2023/08/04 05:07:50;;;;;;;28.88;6.28;;;;;;;20.60;100.00;99851.06;5094134;28;20060;-74
2023/08/04 05:10:15;;;;;;;27.98;6.50;;;;;;;20.61;100.00;99849.13;5076197;28;20032;-74
2023/08/04 05:12:41;;;;;;;27.65;6.50;;;;;;;20.71;100.00;99845.47;5076235;28;20052;-74
2023/08/04 05:15:07;;;;;;;20.92;6.05;;;;;;;20.75;100.00;99857.47;5094473;28;20483;-74
2023/08/04 05:17:35;;;;;;;24.38;6.18;;;;;;;20.86;100.00;99862.53;5092885;28;20036;-73
2023/08/04 05:20:00;;;;;;;22.67;5.95;;;;;;;20.98;100.00;99858.56;5094308;28;20102;-73
2023/08/04 05:22:27;;;;;;;26.15;6.55;;;;;;;20.95;100.00;99859.16;5076129;28;20440;-73
2023/08/04 05:24:52;;;;;;;24.63;5.97;;;;;;;20.94;100.00;99866.53;5093480;28;20028;-74
2023/08/04 05:27:18;;;;;;;27.98;6.25;;;;;;;21.00;100.00;99868.13;5093837;28;20024;-73
2023/08/04 05:29:43;;;;;;;25.73;6.18;;;;;;;20.88;100.00;99865.78;5096587;28;20036;-74
2023/08/04 05:32:08;;;;;;;24.20;6.03;;;;;;;20.87;100.00;99871.56;5059648;28;20094;-74
2023/08/04 05:34:34;;;;;;;21.02;5.60;;;;;;;20.92;100.00;99878.88;5094827;28;20132;-73
2023/08/04 05:36:59;;;;;;;24.52;5.75;;;;;;;20.94;100.00;99872.03;5093043;28;20032;-74
2023/08/04 05:39:25;;;;;;;26.13;6.22;;;;;;;21.10;100.00;99884.41;5075765;28;20035;-74
2023/08/04 05:41:50;;;;;;;23.10;5.65;;;;;;;21.11;100.00;99888.78;5093923;28;20466;-74
2023/08/04 05:44:15;;;;;;;24.77;6.10;;;;;;;21.16;100.00;99881.59;5094018;28;20032;-74
2023/08/04 05:46:41;;;;;;;24.50;5.43;;;;;;;21.22;100.00;99894.13;5092090;28;20034;-73
2023/08/04 05:49:06;;;;;;;27.45;6.28;;;;;;;21.21;100.00;99890.56;5091738;28;20035;-73
2023/08/04 05:51:32;;;;;;;24.83;5.55;;;;;;;21.24;100.00;99891.91;5092715;28;20060;-73
2023/08/04 05:53:57;;;;;;;20.70;5.35;;;;;;;21.30;100.00;99896.22;5075419;28;20027;-73
2023/08/04 05:56:22;;;;;;;27.00;5.43;;;;;;;21.25;100.00;99901.75;5093067;28;20027;-73
2023/08/04 05:58:48;;;;;;;23.70;6.22;;;;;;;21.30;100.00;99899.75;5057878;28;20032;-73
2023/08/04 06:01:13;;;;;;;24.08;5.45;;;;;;;21.30;100.00;99910.72;5091623;28;20028;-72
2023/08/04 06:03:39;;;;;;;29.38;5.95;;;;;;;21.33;100.00;99906.59;5092064;28;20107;-74
2023/08/04 06:06:04;;;;;;;20.30;5.50;;;;;;;21.40;100.00;99917.22;5091629;28;20394;-74
2023/08/04 06:08:30;;;;;;;20.23;4.95;;;;;;;21.51;100.00;99919.50;5074505;28;20031;-74
2023/08/04 06:10:55;;;;;;;18.15;5.95;;;;;;;21.65;100.00;99919.59;5092946;28;20119;-75
2023/08/04 06:13:21;;;;;;;23.67;5.75;;;;;;;21.70;100.00;99916.00;5092246;28;20386;-73
2023/08/04 06:15:47;;;;;;;20.98;5.65;;;;;;;21.87;100.00;99921.75;5092870;28;20111;-74
2023/08/04 06:18:13;;;;;;;21.23;5.38;;;;;;;22.03;100.00;99931.38;5092572;28;20486;-74
2023/08/04 06:20:38;;;;;;;27.77;5.75;;;;;;;22.09;100.00;99932.13;5094674;28;20038;-75
2023/08/04 06:23:04;;;;;;;20.38;4.88;;;;;;;22.17;100.00;99936.16;5091619;28;20039;-75
2023/08/04 06:25:29;;;;;;;18.60;4.75;;;;;;;21.97;100.00;99929.84;5075896;28;20028;-74
2023/08/04 06:27:55;;;;;;;18.13;5.00;;;;;;;21.89;100.00;99938.72;5075438;28;20115;-75
2023/08/04 06:30:21;;;;;;;21.40;4.82;;;;;;;21.90;100.00;99947.75;5093658;28;20024;-74
2023/08/04 06:32:47;;;;;;;20.08;4.63;;;;;;;21.96;100.00;99949.31;5091903;28;20031;-75
2023/08/04 06:35:13;;;;;;;18.23;4.95;;;;;;;21.95;100.00;99953.16;5091445;28;20031;-76
2023/08/04 06:37:38;;;;;;;18.08;4.68;;;;;;;21.98;100.00;99958.84;5080305;28;20103;-75
2023/08/04 06:40:04;;;;;;;20.88;4.70;;;;;;;21.96;100.00;99963.81;5071328;28;20178;-75
2023/08/04 06:42:30;;;;;;;17.67;5.18;;;;;;;22.03;100.00;99955.25;5071138;28;20086;-75
2023/08/04 06:44:56;;;;;;;16.63;4.78;;;;;;;22.17;100.00;99961.63;5072213;28;20410;-75
2023/08/04 06:47:21;;;;;;;23.27;4.75;;;;;;;22.51;100.00;99977.81;5071430;28;20032;-73
2023/08/04 06:49:47;;;;;;;19.88;5.25;;;;;;;22.96;100.00;99972.69;5071097;28;20127;-71
2023/08/04 06:52:12;;;;;;;19.02;4.30;;;;;;;23.00;100.00;99978.38;5072413;28;20119;-73
2023/08/04 06:54:38;;;;;;;14.77;4.47;;;;;;;22.83;100.00;99981.69;5075040;28;20013;-72
2023/08/04 06:57:04;;;;;;;14.07;4.22;;;;;;;22.52;100.00;99993.16;5070729;28;20024;-73
2023/08/04 06:59:29;;;;;;;20.30;5.10;;;;;;;22.51;100.00;99991.50;5073160;28;20035;-73
2023/08/04 07:01:55;;;;;;;14.88;4.20;;;;;;;22.80;100.00;99982.28;5089832;28;20078;-73
2023/08/04 07:04:20;;;;;;;23.90;6.22;;;;;;;23.21;99.91;99989.78;5091827;28;20024;-73
2023/08/04 07:06:46;;;;;;;13.50;4.22;;;;;;;22.97;99.90;99970.75;5080430;28;20025;-73
2023/08/04 07:09:11;;;;;;;16.00;4.25;;;;;;;23.12;100.00;99994.38;5037020;28;20036;-73
2023/08/04 07:11:37;;;;;;;16.88;4.18;;;;;;;23.09;99.84;99994.97;5037169;28;20514;-73
2023/08/04 07:14:02;;;;;;;19.17;4.63;;;;;;;23.01;99.42;99998.41;5053633;28;20406;-73
2023/08/04 07:16:28;;;;;;;16.13;4.20;;;;;;;23.05;99.44;100004.94;5063095;28;20037;-73
2023/08/04 07:18:53;;;;;;;14.18;3.58;;;;;;;23.23;98.64;100008.72;5070216;28;20028;-73
2023/08/04 07:21:19;;;;;;;13.15;3.90;;;;;;;22.92;97.57;100009.25;5069971;28;20033;-73
2023/08/04 07:23:44;;;;;;;12.43;4.00;;;;;;;23.00;97.18;100011.31;5069974;28;20016;-73
2023/08/04 07:26:10;;;;;;;12.40;3.65;;;;;;;23.18;95.23;100006.91;5087841;28;20028;-73
2023/08/04 07:28:37;;;;;;;16.90;3.80;;;;;;;23.31;94.82;100013.50;5072135;28;20051;-73
2023/08/04 07:31:10;;;;;;;16.23;4.47;;;;;;;23.48;94.31;100013.72;5070271;28;20032;-73
2023/08/04 07:33:37;;;;;;;17.60;3.97;;;;;;;23.74;93.30;100016.81;5070084;28;20063;-73
2023/08/04 07:36:03;;;;;;;16.02;4.15;;;;;;;23.88;93.17;100025.84;5071868;28;20024;-73
2023/08/04 07:38:29;;;;;;;15.90;4.40;;;;;;;24.29;92.07;100027.69;5085869;28;20028;-73
2023/08/04 07:40:56;;;;;;;16.42;3.72;;;;;;;24.59;90.10;100030.91;5091168;28;20386;-73
2023/08/04 07:43:21;;;;;;;15.00;3.70;;;;;;;24.59;88.68;100030.91;5092439;28;20047;-73
2023/08/04 07:45:47;;;;;;;17.35;3.78;;;;;;;24.62;89.10;100030.28;5086891;28;20491;-73
2023/08/04 07:48:12;;;;;;;15.85;3.90;;;;;;;24.66;87.14;100034.03;5052846;28;20036;-73
2023/08/04 07:50:43;;;;;;;13.32;3.83;;;;;;;24.37;86.05;100046.22;5087514;28;20138;-73
2023/08/04 07:53:09;;;;;;;14.60;4.10;;;;;;;24.43;88.04;100040.63;5091445;28;20527;-73
2023/08/04 07:55:36;;;;;;;14.43;3.92;;;;;;;24.84;87.67;100041.28;5090113;28;20119;-73
2023/08/04 07:58:05;;;;;;;17.08;4.20;;;;;;;24.81;87.13;100039.16;5091374;28;20020;-73
2023/08/04 08:00:30;;;;;;;15.70;4.15;;;;;;;24.61;87.81;100045.16;5106875;28;20057;-73
2023/08/04 08:02:55;;;;;;;13.55;3.60;;;;;;;24.58;86.24;100038.34;5087382;28;20085;-73
2023/08/04 08:05:21;;;;;;;13.70;4.18;;;;;;;24.70;85.24;100036.97;5069738;28;20056;-73
2023/08/04 08:07:46;;;;;;;13.20;3.90;;;;;;;24.96;85.36;100059.16;5069747;28;20062;-73
2023/08/04 08:10:12;;;;;;;15.20;3.80;;;;;;;24.98;86.04;100060.47;5053106;28;20055;-73
2023/08/04 08:12:38;;;;;;;14.02;3.97;;;;;;;24.87;85.71;100041.75;5086635;28;20036;-73
2023/08/04 08:15:07;;;;;;;19.65;4.32;;;;;;;24.92;85.74;100060.91;5087798;28;20394;-72
2023/08/04 08:17:32;;;;;;;13.85;3.83;;;;;;;24.87;86.50;100072.03;5057376;28;20024;-73
2023/08/04 08:19:58;;;;;;;14.65;3.88;;;;;;;24.64;85.95;100072.03;5073510;28;20021;-73
2023/08/04 08:22:23;;;;;;;18.55;4.18;;;;;;;24.60;86.14;100068.28;5057070;28;20036;-73
2023/08/04 08:24:53;;;;;;;12.98;3.70;;;;;;;24.74;85.09;100065.50;5073534;28;20090;-73
2023/08/04 08:27:18;;;;;;;13.55;3.70;;;;;;;24.88;84.46;100066.25;5090475;28;20506;-74
2023/08/04 08:29:44;;;;;;;15.25;3.95;;;;;;;24.97;83.92;100074.56;5073822;28;20060;-74
2023/08/04 08:32:09;;;;;;;18.23;4.20;;;;;;;24.62;84.89;100074.28;5075452;28;20031;-74
2023/08/04 08:34:35;;;;;;;19.35;3.70;;;;;;;24.53;84.23;100084.38;5075677;28;20040;-74
2023/08/04 08:37:02;;;;;;;15.60;3.83;;;;;;;24.33;84.62;100091.94;5064005;28;20063;-74
2023/08/04 08:39:28;;;;;;;16.10;3.90;;;;;;;24.30;84.82;100081.56;5085721;28;20111;-74
2023/08/04 08:41:54;;;;;;;16.67;3.78;;;;;;;24.44;84.49;100092.59;5094915;28;20032;-74
2023/08/04 08:44:19;;;;;;;19.85;4.18;;;;;;;24.44;84.77;100086.28;5093679;28;20398;-74
2023/08/04 08:46:44;;;;;;;19.48;4.35;;;;;;;24.61;84.49;100100.19;5093456;28;20032;-74
2023/08/04 08:49:10;;;;;;;14.80;4.40;;;;;;;24.71;82.62;100099.94;5085290;28;20029;-74
2023/08/04 08:51:42;;;;;;;11.75;3.47;;;;;;;24.67;82.15;100078.84;5074866;28;20136;-74
2023/08/04 08:54:09;;;;;;;12.40;4.10;;;;;;;24.87;82.39;100091.31;5094673;28;20047;-74
2023/08/04 08:56:35;;;;;;;14.30;3.92;;;;;;;25.04;82.43;100108.78;5110225;28;20032;-74
2023/08/04 08:59:01;;;;;;;11.43;3.50;;;;;;;24.98;82.16;100121.03;5109898;28;20081;-74
2023/08/04 09:01:26;;;;;;;14.30;3.78;;;;;;;24.90;81.52;100098.94;5093597;28;20074;-73
2023/08/04 09:03:52;;;;;;;14.20;4.03;;;;;;;24.96;81.31;100119.72;5093626;28;20421;-72
2023/08/04 09:06:17;;;;;;;13.43;3.72;;;;;;;24.77;81.09;100108.91;5075881;28;20044;-72
2023/08/04 09:08:43;;;;;;;19.83;4.47;;;;;;;24.60;81.33;100104.03;5093061;28;20548;-74
2023/08/04 09:11:09;;;;;;;12.45;3.38;;;;;;;24.78;81.31;100127.84;5091723;28;20035;-74
2023/08/04 09:13:40;;;;;;;13.68;4.00;;;;;;;24.90;80.76;100138.31;5092959;28;20127;-73
2023/08/04 09:16:08;;;;;;;13.45;3.78;;;;;;;24.94;79.72;100139.31;5081302;28;20028;-73
2023/08/04 09:18:38;;;;;;;13.85;3.95;;;;;;;24.90;79.89;100129.22;5087725;28;20077;-73
2023/08/04 09:21:07;;;;;;;10.80;3.22;;;;;;;24.99;79.29;100133.66;5084162;28;20171;-73
2023/08/04 09:23:35;;;;;;;13.55;3.80;;;;;;;24.80;80.23;100144.84;5071705;28;20035;-72
2023/08/04 09:26:01;;;;;;;11.82;3.60;;;;;;;24.75;80.42;100142.22;5070822;28;20074;-72
2023/08/04 09:28:27;;;;;;;13.90;3.95;;;;;;;24.82;79.98;100139.03;5074452;28;21888;-72
2023/08/04 09:31:07;;;;;;;17.20;3.50;;;;;;;24.80;80.02;100128.34;5073155;28;20033;-72
2023/08/04 09:33:34;;;;;;;12.25;3.25;;;;;;;24.91;79.13;100147.38;5073302;28;20134;-72
2023/08/04 09:36:06;;;;;;;14.70;4.10;;;;;;;24.89;78.71;100150.41;5074276;28;20032;-72
2023/08/04 09:38:33;;;;;;;15.63;4.53;;;;;;;24.92;78.65;100149.78;5071203;28;20115;-73
2023/08/04 09:41:04;;;;;;;12.00;3.55;;;;;;;24.90;78.61;100157.56;5070516;28;20487;-72
2023/08/04 09:43:30;;;;;;;12.82;3.45;;;;;;;24.83;78.72;100143.41;5071979;28;20037;-72
2023/08/04 09:46:04;;;;;;;11.00;3.40;;;;;;;24.83;77.93;100144.22;5071266;28;20024;-72
2023/08/04 09:48:30;;;;;;;12.45;3.33;;;;;;;24.80;77.51;100144.84;5071195;28;20193;-73
2023/08/04 09:51:16;;;;;;;10.77;3.55;;;;;;;24.83;77.15;100157.16;5070249;28;20114;-72
2023/08/04 09:53:43;;;;;;;11.52;3.50;;;;;;;24.91;77.80;100172.94;5072352;28;20021;-73
2023/08/04 09:56:10;;;;;;;13.15;6.32;;;;;;;24.91;77.37;100175.69;5073712;28;20022;-73
2023/08/04 09:58:37;;;;;;;13.98;4.90;;;;;;;25.08;77.07;100169.53;5072012;28;20033;-73
2023/08/04 10:01:03;;;;;;;12.60;4.03;;;;;;;25.17;76.93;100173.19;5055050;28;20103;-73
2023/08/04 10:03:30;;;;;;;11.65;3.85;;;;;;;25.19;76.23;100179.19;5073579;28;20475;-73
2023/08/04 10:05:59;;;;;;;11.52;3.67;;;;;;;25.18;76.57;100185.81;5072033;28;20036;-73
2023/08/04 10:08:29;;;;;;;8.20;3.15;;;;;;;25.22;76.25;100183.25;5071850;28;20038;-73
2023/08/04 10:10:56;;;;;;;13.98;3.78;;;;;;;25.50;75.27;100186.72;5071986;28;20025;-73
2023/08/04 10:13:22;;;;;;;11.43;3.65;;;;;;;25.47;75.21;100193.66;5073327;28;20063;-73
2023/08/04 10:15:48;;;;;;;8.38;3.40;;;;;;;25.42;74.98;100199.28;5071654;28;20032;-73
2023/08/04 10:18:14;;;;;;;10.70;3.10;;;;;;;25.29;74.08;100173.44;5055124;28;20033;-73
2023/08/04 10:20:39;;;;;;;11.88;3.00;;;;;;;25.44;73.92;100199.78;5057137;28;20123;-73
2023/08/04 10:23:05;;;;;;;11.82;3.47;;;;;;;25.73;72.83;100199.34;5076929;28;20103;-73
2023/08/04 10:25:30;;;;;;;15.68;3.25;;;;;;;25.64;72.38;100159.09;5059946;28;20036;-72
2023/08/04 10:27:57;;;;;;;10.63;3.38;;;;;;;25.99;70.96;100187.66;5075812;28;20021;-72
2023/08/04 10:30:24;;;;;;;13.75;3.30;;;;;;;26.07;70.58;100197.09;5076166;28;20082;-73
2023/08/04 10:32:50;;;;;;;11.43;3.42;;;;;;;26.11;70.95;100196.13;5062244;28;20032;-73
2023/08/04 10:35:21;;;;;;;12.02;3.55;;;;;;;26.09;70.31;100203.91;5060609;28;20059;-73
2023/08/04 10:37:55;;;;;;;12.07;3.13;;;;;;;25.90;70.34;100200.59;5076176;28;20115;-73
2023/08/04 10:40:33;;;;;;;9.57;3.30;;;;;;;25.84;69.81;100190.81;5094054;28;20031;-73
2023/08/04 10:43:06;;;;;;;11.18;3.17;;;;;;;26.01;70.12;100211.00;5092573;28;20036;-73
2023/08/04 10:45:52;;;;;;;13.15;3.13;;;;;;;25.97;67.80;100209.22;5092201;28;20031;-73
2023/08/04 10:48:22;;;;;;;10.85;3.03;;;;;;;26.06;68.67;100214.75;5091564;28;20047;-73
2023/08/04 10:50:51;;;;;;;14.88;3.13;;;;;;;25.96;68.38;100204.81;5090348;28;20044;-73
2023/08/04 10:53:17;;;;;;;11.50;3.08;;;;;;;25.85;69.17;100214.50;5090775;28;20043;-72
2023/08/04 10:55:57;;;;;;;9.93;3.28;;;;;;;26.07;68.74;100214.44;5091480;28;20419;-73
2023/08/04 10:58:23;;;;;;;10.18;2.75;;;;;;;26.13;69.00;100215.94;5095089;28;20051;-72
2023/08/04 11:00:49;;;;;;;11.10;3.05;;;;;;;26.00;69.13;100222.38;5093146;28;20063;-73
2023/08/04 11:03:28;;;;;;;14.57;3.05;;;;;;;25.88;68.46;100231.22;5074083;28;20051;-73
2023/08/04 11:05:55;;;;;;;10.95;3.10;;;;;;;25.57;68.13;100208.31;5092395;28;20020;-73
2023/08/04 11:08:22;;;;;;;8.05;2.88;;;;;;;25.45;68.32;100226.19;5074187;28;20547;-74
2023/08/04 11:10:54;;;;;;;8.43;2.85;;;;;;;25.27;68.99;100222.50;5091819;28;20047;-73
2023/08/04 11:13:21;;;;;;;13.02;2.80;;;;;;;25.61;68.37;100218.38;5091144;28;20111;-73